sensor_id;sensor_type;location;lat;lon;timestamp;pressure;altitude;pressure_sealevel;temperature;humidity
55373;BME280;70018;47.838;16.490;2023-07-13T00:00:11;99033.75;;;13.82;81.88
55373;BME280;70018;47.838;16.490;2023-07-13T00:02:38;99027.75;;;13.84;81.50
55373;BME280;70018;47.838;16.490;2023-07-13T00:05:05;99024.47;;;13.89;80.95
55373;BME280;70018;47.838;16.490;2023-07-13T00:07:33;99025.69;;;13.88;80.49
55373;BME280;70018;47.838;16.490;2023-07-13T00:10:01;99009.78;;;13.85;80.76
55373;BME280;70018;47.838;16.490;2023-07-13T00:12:36;99008.63;;;13.82;80.61
55373;BME280;70018;47.838;16.490;2023-07-13T00:15:12;99010.22;;;13.83;80.37
55373;BME280;70018;47.838;16.490;2023-07-13T00:17:39;99005.50;;;13.80;80.83
55373;BME280;70018;47.838;16.490;2023-07-13T00:20:06;99007.94;;;13.78;80.73
55373;BME280;70018;47.838;16.490;2023-07-13T00:22:33;99004.00;;;13.76;80.91
55373;BME280;70018;47.838;16.490;2023-07-13T00:25:00;98998.91;;;13.71;81.05
55373;BME280;70018;47.838;16.490;2023-07-13T00:27:27;98999.38;;;13.65;81.72
55373;BME280;70018;47.838;16.490;2023-07-13T00:29:56;99005.75;;;13.66;81.05
55373;BME280;70018;47.838;16.490;2023-07-13T00:32:22;99001.78;;;13.67;80.76
55373;BME280;70018;47.838;16.490;2023-07-13T00:34:52;98995.31;;;13.70;80.29
55373;BME280;70018;47.838;16.490;2023-07-13T00:37:18;98983.31;;;13.73;79.62
55373;BME280;70018;47.838;16.490;2023-07-13T00:39:45;99001.19;;;13.76;79.36
55373;BME280;70018;47.838;16.490;2023-07-13T00:42:12;98995.19;;;13.77;79.37
55373;BME280;70018;47.838;16.490;2023-07-13T00:44:39;98980.75;;;13.82;78.53
55373;BME280;70018;47.838;16.490;2023-07-13T00:47:06;98988.63;;;13.87;78.12
55373;BME280;70018;47.838;16.490;2023-07-13T00:49:35;98983.78;;;13.91;77.76
55373;BME280;70018;47.838;16.490;2023-07-13T00:52:07;98996.44;;;13.96;77.11
55373;BME280;70018;47.838;16.490;2023-07-13T00:54:41;98982.78;;;14.01;76.57
55373;BME280;70018;47.838;16.490;2023-07-13T00:57:14;98996.28;;;14.03;76.41
55373;BME280;70018;47.838;16.490;2023-07-13T00:59:44;99003.53;;;14.00;76.43
55373;BME280;70018;47.838;16.490;2023-07-13T01:02:12;99001.97;;;13.99;76.97
55373;BME280;70018;47.838;16.490;2023-07-13T01:04:39;98994.94;;;13.91;77.26
55373;BME280;70018;47.838;16.490;2023-07-13T01:07:06;99001.38;;;13.88;77.36
55373;BME280;70018;47.838;16.490;2023-07-13T01:09:33;98991.91;;;13.82;77.74
55373;BME280;70018;47.838;16.490;2023-07-13T01:12:00;98989.69;;;13.74;78.30
55373;BME280;70018;47.838;16.490;2023-07-13T01:14:27;98980.16;;;13.71;78.27
55373;BME280;70018;47.838;16.490;2023-07-13T01:16:54;98981.88;;;13.65;78.23
55373;BME280;70018;47.838;16.490;2023-07-13T01:19:44;98955.59;;;13.62;78.49
55373;BME280;70018;47.838;16.490;2023-07-13T01:22:16;98923.78;;;13.60;78.89
55373;BME280;70018;47.838;16.490;2023-07-13T01:24:45;98920.63;;;13.58;79.38
55373;BME280;70018;47.838;16.490;2023-07-13T01:27:15;98914.91;;;13.65;78.14
55373;BME280;70018;47.838;16.490;2023-07-13T01:29:43;98916.00;;;13.71;77.43
55373;BME280;70018;47.838;16.490;2023-07-13T01:32:16;98892.41;;;13.76;76.95
55373;BME280;70018;47.838;16.490;2023-07-13T01:34:43;98889.91;;;13.81;76.43
55373;BME280;70018;47.838;16.490;2023-07-13T01:37:11;98898.19;;;13.85;76.01
55373;BME280;70018;47.838;16.490;2023-07-13T01:39:38;98907.34;;;13.85;75.78
55373;BME280;70018;47.838;16.490;2023-07-13T01:42:05;98918.75;;;13.94;75.36
55373;BME280;70018;47.838;16.490;2023-07-13T01:44:32;98923.50;;;14.13;74.62
55373;BME280;70018;47.838;16.490;2023-07-13T01:46:59;98932.44;;;14.24;74.06
55373;BME280;70018;47.838;16.490;2023-07-13T01:49:25;98920.69;;;14.33;73.40
55373;BME280;70018;47.838;16.490;2023-07-13T01:51:52;98932.38;;;14.48;72.16
55373;BME280;70018;47.838;16.490;2023-07-13T01:54:19;98928.03;;;14.63;71.20
55373;BME280;70018;47.838;16.490;2023-07-13T01:56:45;98925.41;;;14.72;70.30
55373;BME280;70018;47.838;16.490;2023-07-13T01:59:12;98926.94;;;14.76;69.82
55373;BME280;70018;47.838;16.490;2023-07-13T02:01:38;98923.00;;;14.90;69.40
55373;BME280;70018;47.838;16.490;2023-07-13T02:04:05;98925.88;;;14.86;69.40
55373;BME280;70018;47.838;16.490;2023-07-13T02:06:32;98919.50;;;14.86;69.31
55373;BME280;70018;47.838;16.490;2023-07-13T02:08:59;98918.53;;;14.92;69.39
55373;BME280;70018;47.838;16.490;2023-07-13T02:11:26;98925.19;;;14.99;69.02
55373;BME280;70018;47.838;16.490;2023-07-13T02:14:02;98926.13;;;15.08;68.44
55373;BME280;70018;47.838;16.490;2023-07-13T02:16:30;98946.16;;;15.07;68.53
55373;BME280;70018;47.838;16.490;2023-07-13T02:18:57;98951.31;;;15.08;68.50
55373;BME280;70018;47.838;16.490;2023-07-13T02:21:24;98976.81;;;15.10;68.46
55373;BME280;70018;47.838;16.490;2023-07-13T02:23:50;98995.44;;;15.17;68.12
55373;BME280;70018;47.838;16.490;2023-07-13T02:26:17;99006.53;;;15.20;67.65
55373;BME280;70018;47.838;16.490;2023-07-13T02:28:44;99005.50;;;15.14;67.93
55373;BME280;70018;47.838;16.490;2023-07-13T02:31:13;99015.94;;;15.10;68.31
55373;BME280;70018;47.838;16.490;2023-07-13T02:33:40;99027.59;;;15.09;68.47
55373;BME280;70018;47.838;16.490;2023-07-13T02:36:07;99045.16;;;15.09;68.47
55373;BME280;70018;47.838;16.490;2023-07-13T02:38:35;99049.34;;;15.17;67.94
55373;BME280;70018;47.838;16.490;2023-07-13T02:41:06;99063.31;;;15.17;68.17
55373;BME280;70018;47.838;16.490;2023-07-13T02:43:34;99077.13;;;15.08;68.69
55373;BME280;70018;47.838;16.490;2023-07-13T02:46:02;99084.44;;;15.02;69.55
55373;BME280;70018;47.838;16.490;2023-07-13T02:48:34;99099.72;;;14.98;69.95
55373;BME280;70018;47.838;16.490;2023-07-13T02:51:01;99107.16;;;14.84;71.32
55373;BME280;70018;47.838;16.490;2023-07-13T02:53:27;99114.34;;;14.66;73.08
55373;BME280;70018;47.838;16.490;2023-07-13T02:55:54;99132.66;;;14.47;74.21
55373;BME280;70018;47.838;16.490;2023-07-13T02:58:20;99135.41;;;14.27;75.82
55373;BME280;70018;47.838;16.490;2023-07-13T03:00:48;99140.47;;;14.13;75.42
55373;BME280;70018;47.838;16.490;2023-07-13T03:03:16;99146.00;;;13.93;78.33
55373;BME280;70018;47.838;16.490;2023-07-13T03:05:44;99145.47;;;13.75;80.10
55373;BME280;70018;47.838;16.490;2023-07-13T03:08:16;99162.44;;;13.61;80.92
55373;BME280;70018;47.838;16.490;2023-07-13T03:10:44;99163.03;;;13.49;81.97
55373;BME280;70018;47.838;16.490;2023-07-13T03:13:11;99169.53;;;13.39;82.16
55373;BME280;70018;47.838;16.490;2023-07-13T03:15:37;99174.78;;;13.33;85.31
55373;BME280;70018;47.838;16.490;2023-07-13T03:18:04;99167.44;;;13.16;86.99
55373;BME280;70018;47.838;16.490;2023-07-13T03:20:33;99169.91;;;13.11;88.95
55373;BME280;70018;47.838;16.490;2023-07-13T03:23:00;99170.38;;;13.06;87.65
55373;BME280;70018;47.838;16.490;2023-07-13T03:25:26;99177.16;;;13.05;88.81
55373;BME280;70018;47.838;16.490;2023-07-13T03:27:53;99176.03;;;12.98;90.09
55373;BME280;70018;47.838;16.490;2023-07-13T03:30:20;99187.63;;;12.93;89.56
55373;BME280;70018;47.838;16.490;2023-07-13T03:32:46;99195.97;;;12.97;88.77
55373;BME280;70018;47.838;16.490;2023-07-13T03:35:13;99210.22;;;13.02;88.37
55373;BME280;70018;47.838;16.490;2023-07-13T03:37:40;99218.56;;;13.02;87.97
55373;BME280;70018;47.838;16.490;2023-07-13T03:40:10;99225.00;;;12.99;89.87
55373;BME280;70018;47.838;16.490;2023-07-13T03:42:37;99228.59;;;12.96;91.64
55373;BME280;70018;47.838;16.490;2023-07-13T03:45:04;99236.25;;;12.89;91.96
55373;BME280;70018;47.838;16.490;2023-07-13T03:47:31;99246.22;;;12.86;93.98
55373;BME280;70018;47.838;16.490;2023-07-13T03:49:58;99239.53;;;12.80;93.87
55373;BME280;70018;47.838;16.490;2023-07-13T03:52:24;99240.28;;;12.84;93.60
55373;BME280;70018;47.838;16.490;2023-07-13T03:54:51;99234.66;;;12.88;92.12
55373;BME280;70018;47.838;16.490;2023-07-13T03:57:18;99224.69;;;12.90;90.57
55373;BME280;70018;47.838;16.490;2023-07-13T03:59:45;99209.97;;;12.90;91.99
55373;BME280;70018;47.838;16.490;2023-07-13T04:02:11;99192.13;;;12.84;91.93
55373;BME280;70018;47.838;16.490;2023-07-13T04:04:38;99177.84;;;12.82;93.76
55373;BME280;70018;47.838;16.490;2023-07-13T04:07:07;99147.59;;;12.80;94.42
55373;BME280;70018;47.838;16.490;2023-07-13T04:09:35;99119.44;;;12.75;95.69
55373;BME280;70018;47.838;16.490;2023-07-13T04:12:02;99100.38;;;12.70;95.36
55373;BME280;70018;47.838;16.490;2023-07-13T04:14:28;99093.22;;;12.69;95.50
55373;BME280;70018;47.838;16.490;2023-07-13T04:16:55;99096.81;;;12.69;95.57
55373;BME280;70018;47.838;16.490;2023-07-13T04:19:23;99093.56;;;12.74;94.82
55373;BME280;70018;47.838;16.490;2023-07-13T04:21:49;99074.81;;;12.78;95.43
55373;BME280;70018;47.838;16.490;2023-07-13T04:24:16;99058.44;;;12.80;95.78
55373;BME280;70018;47.838;16.490;2023-07-13T04:26:43;99036.56;;;12.82;95.81
55373;BME280;70018;47.838;16.490;2023-07-13T04:29:10;99016.56;;;12.87;95.27
55373;BME280;70018;47.838;16.490;2023-07-13T04:31:36;99003.03;;;12.89;95.59
55373;BME280;70018;47.838;16.490;2023-07-13T04:34:03;98975.88;;;12.93;94.96
55373;BME280;70018;47.838;16.490;2023-07-13T04:36:30;98952.75;;;12.96;95.10
55373;BME280;70018;47.838;16.490;2023-07-13T04:38:57;98936.03;;;12.96;94.29
55373;BME280;70018;47.838;16.490;2023-07-13T04:41:23;98921.16;;;13.07;93.16
55373;BME280;70018;47.838;16.490;2023-07-13T04:43:50;98909.03;;;13.17;91.61
55373;BME280;70018;47.838;16.490;2023-07-13T04:46:17;98909.75;;;13.21;91.18
55373;BME280;70018;47.838;16.490;2023-07-13T04:48:45;98920.75;;;13.28;89.82
55373;BME280;70018;47.838;16.490;2023-07-13T04:51:12;98939.31;;;13.38;88.63
55373;BME280;70018;47.838;16.490;2023-07-13T04:53:38;98947.97;;;13.43;87.52
55373;BME280;70018;47.838;16.490;2023-07-13T04:56:05;98935.22;;;13.42;87.64
55373;BME280;70018;47.838;16.490;2023-07-13T04:58:33;98918.09;;;13.44;87.70
55373;BME280;70018;47.838;16.490;2023-07-13T05:01:04;98887.38;;;13.47;87.16
55373;BME280;70018;47.838;16.490;2023-07-13T05:03:32;98882.03;;;13.56;86.26
55373;BME280;70018;47.838;16.490;2023-07-13T05:06:04;98918.94;;;13.64;86.35
55373;BME280;70018;47.838;16.490;2023-07-13T05:08:31;98956.66;;;13.72;85.66
55373;BME280;70018;47.838;16.490;2023-07-13T05:11:03;98960.00;;;13.83;84.87
55373;BME280;70018;47.838;16.490;2023-07-13T05:13:30;99031.13;;;13.95;84.71
55373;BME280;70018;47.838;16.490;2023-07-13T05:16:02;99050.47;;;14.05;84.08
55373;BME280;70018;47.838;16.490;2023-07-13T05:18:30;99060.28;;;14.37;83.41
55373;BME280;70018;47.838;16.490;2023-07-13T05:21:01;99087.13;;;14.70;82.48
55373;BME280;70018;47.838;16.490;2023-07-13T05:23:30;99100.84;;;15.00;81.38
55373;BME280;70018;47.838;16.490;2023-07-13T05:25:57;99105.13;;;15.24;81.16
55373;BME280;70018;47.838;16.490;2023-07-13T05:28:24;99113.31;;;15.67;80.54
55373;BME280;70018;47.838;16.490;2023-07-13T05:30:51;99126.59;;;15.95;79.52
55373;BME280;70018;47.838;16.490;2023-07-13T05:33:18;99148.56;;;15.97;79.51
55373;BME280;70018;47.838;16.490;2023-07-13T05:35:44;99157.22;;;15.70;80.30
55373;BME280;70018;47.838;16.490;2023-07-13T05:38:11;99153.34;;;15.48;80.68
55373;BME280;70018;47.838;16.490;2023-07-13T05:40:38;99148.50;;;15.32;81.58
55373;BME280;70018;47.838;16.490;2023-07-13T05:43:04;99136.19;;;15.10;81.60
55373;BME280;70018;47.838;16.490;2023-07-13T05:45:31;99133.69;;;14.96;82.28
55373;BME280;70018;47.838;16.490;2023-07-13T05:47:58;99149.19;;;14.81;82.43
55373;BME280;70018;47.838;16.490;2023-07-13T05:50:26;99146.72;;;14.63;82.83
55373;BME280;70018;47.838;16.490;2023-07-13T05:52:53;99153.38;;;14.50;82.91
55373;BME280;70018;47.838;16.490;2023-07-13T05:55:20;99143.72;;;14.54;82.99
55373;BME280;70018;47.838;16.490;2023-07-13T05:57:47;99141.94;;;14.64;82.58
55373;BME280;70018;47.838;16.490;2023-07-13T06:00:14;99137.16;;;14.64;82.59
55373;BME280;70018;47.838;16.490;2023-07-13T06:02:41;99136.50;;;14.76;82.40
55373;BME280;70018;47.838;16.490;2023-07-13T06:05:08;99139.44;;;14.89;82.06
55373;BME280;70018;47.838;16.490;2023-07-13T06:07:35;99145.50;;;15.04;81.54
55373;BME280;70018;47.838;16.490;2023-07-13T06:10:02;99142.22;;;15.09;81.45
55373;BME280;70018;47.838;16.490;2023-07-13T06:12:28;99143.19;;;15.18;81.19
55373;BME280;70018;47.838;16.490;2023-07-13T06:14:55;99143.84;;;15.26;81.35
55373;BME280;70018;47.838;16.490;2023-07-13T06:17:22;99152.53;;;15.31;81.32
55373;BME280;70018;47.838;16.490;2023-07-13T06:19:48;99163.47;;;15.42;80.94
55373;BME280;70018;47.838;16.490;2023-07-13T06:22:15;99161.09;;;15.40;81.07
55373;BME280;70018;47.838;16.490;2023-07-13T06:24:42;99164.38;;;15.55;80.78
55373;BME280;70018;47.838;16.490;2023-07-13T06:27:08;99174.25;;;15.60;80.63
55373;BME280;70018;47.838;16.490;2023-07-13T06:29:35;99168.66;;;15.60;81.29
55373;BME280;70018;47.838;16.490;2023-07-13T06:32:01;99168.84;;;15.69;80.84
55373;BME280;70018;47.838;16.490;2023-07-13T06:34:28;99165.44;;;15.77;80.44
55373;BME280;70018;47.838;16.490;2023-07-13T06:36:55;99173.59;;;16.04;79.99
55373;BME280;70018;47.838;16.490;2023-07-13T06:39:21;99169.06;;;16.10;79.29
55373;BME280;70018;47.838;16.490;2023-07-13T06:41:48;99168.75;;;16.04;78.91
55373;BME280;70018;47.838;16.490;2023-07-13T06:44:14;99167.13;;;16.07;78.80
55373;BME280;70018;47.838;16.490;2023-07-13T06:46:41;99171.00;;;16.13;78.51
55373;BME280;70018;47.838;16.490;2023-07-13T06:49:08;99172.22;;;16.12;78.34
55373;BME280;70018;47.838;16.490;2023-07-13T06:51:35;99163.47;;;16.10;77.98
55373;BME280;70018;47.838;16.490;2023-07-13T06:54:02;99163.97;;;16.05;77.56
55373;BME280;70018;47.838;16.490;2023-07-13T06:56:29;99174.72;;;15.90;77.90
55373;BME280;70018;47.838;16.490;2023-07-13T06:58:55;99169.06;;;15.94;77.60
55373;BME280;70018;47.838;16.490;2023-07-13T07:01:22;99169.41;;;15.96;77.45
55373;BME280;70018;47.838;16.490;2023-07-13T07:03:49;99163.78;;;15.96;77.88
55373;BME280;70018;47.838;16.490;2023-07-13T07:08:57;99173.16;;;16.66;75.29
55373;BME280;70018;47.838;16.490;2023-07-13T07:11:25;99155.94;;;17.09;74.10
55373;BME280;70018;47.838;16.490;2023-07-13T07:13:52;99164.09;;;17.58;71.80
55373;BME280;70018;47.838;16.490;2023-07-13T07:16:20;99157.50;;;17.89;70.30
55373;BME280;70018;47.838;16.490;2023-07-13T07:18:48;99153.03;;;18.39;69.83
55373;BME280;70018;47.838;16.490;2023-07-13T07:21:15;99160.78;;;18.69;68.59
55373;BME280;70018;47.838;16.490;2023-07-13T07:23:42;99152.88;;;18.77;67.21
55373;BME280;70018;47.838;16.490;2023-07-13T07:26:10;99161.25;;;18.89;66.62
55373;BME280;70018;47.838;16.490;2023-07-13T07:28:37;99176.81;;;18.81;67.06
55373;BME280;70018;47.838;16.490;2023-07-13T07:31:07;99162.63;;;18.85;66.23
55373;BME280;70018;47.838;16.490;2023-07-13T07:33:36;99167.16;;;18.82;65.84
55373;BME280;70018;47.838;16.490;2023-07-13T07:36:03;99166.28;;;18.73;65.55
55373;BME280;70018;47.838;16.490;2023-07-13T07:38:33;99157.06;;;18.72;65.54
55373;BME280;70018;47.838;16.490;2023-07-13T07:41:05;99167.00;;;18.64;65.84
55373;BME280;70018;47.838;16.490;2023-07-13T07:43:35;99163.75;;;18.87;65.31
55373;BME280;70018;47.838;16.490;2023-07-13T07:46:02;99161.59;;;19.34;65.33
55373;BME280;70018;47.838;16.490;2023-07-13T07:48:30;99151.84;;;19.26;64.05
55373;BME280;70018;47.838;16.490;2023-07-13T07:50:57;99161.72;;;19.31;64.26
55373;BME280;70018;47.838;16.490;2023-07-13T07:53:23;99154.28;;;19.46;64.26
55373;BME280;70018;47.838;16.490;2023-07-13T07:55:50;99149.16;;;19.54;63.76
55373;BME280;70018;47.838;16.490;2023-07-13T07:58:20;99158.41;;;19.85;63.38
55373;BME280;70018;47.838;16.490;2023-07-13T08:00:50;99171.50;;;19.79;63.19
55373;BME280;70018;47.838;16.490;2023-07-13T08:03:20;99168.72;;;19.88;62.41
55373;BME280;70018;47.838;16.490;2023-07-13T08:05:52;99160.59;;;19.90;61.12
55373;BME280;70018;47.838;16.490;2023-07-13T08:08:22;99169.47;;;20.28;60.86
55373;BME280;70018;47.838;16.490;2023-07-13T08:10:48;99156.94;;;20.29;57.99
55373;BME280;70018;47.838;16.490;2023-07-13T08:13:15;99165.06;;;20.18;58.06
55373;BME280;70018;47.838;16.490;2023-07-13T08:15:42;99178.03;;;20.16;58.08
55373;BME280;70018;47.838;16.490;2023-07-13T08:18:09;99171.22;;;20.35;57.74
55373;BME280;70018;47.838;16.490;2023-07-13T08:20:39;99169.53;;;20.74;57.35
55373;BME280;70018;47.838;16.490;2023-07-13T08:23:07;99168.59;;;20.58;56.94
55373;BME280;70018;47.838;16.490;2023-07-13T08:25:35;99168.44;;;20.71;56.16
55373;BME280;70018;47.838;16.490;2023-07-13T08:28:03;99173.94;;;20.75;55.94
55373;BME280;70018;47.838;16.490;2023-07-13T08:30:29;99175.47;;;20.94;55.43
55373;BME280;70018;47.838;16.490;2023-07-13T08:32:56;99185.19;;;21.02;55.08
55373;BME280;70018;47.838;16.490;2023-07-13T08:35:23;99191.16;;;20.86;53.21
55373;BME280;70018;47.838;16.490;2023-07-13T08:37:52;99192.09;;;20.83;50.62
55373;BME280;70018;47.838;16.490;2023-07-13T08:40:19;99189.09;;;20.95;51.84
55373;BME280;70018;47.838;16.490;2023-07-13T08:42:54;99190.81;;;21.11;52.58
55373;BME280;70018;47.838;16.490;2023-07-13T08:53:41;99192.97;;;21.52;50.31
55373;BME280;70018;47.838;16.490;2023-07-13T08:56:30;99207.84;;;21.62;47.30
55373;BME280;70018;47.838;16.490;2023-07-13T08:59:11;99186.34;;;21.55;49.90
55373;BME280;70018;47.838;16.490;2023-07-13T09:04:30;99199.38;;;22.04;48.32
55373;BME280;70018;47.838;16.490;2023-07-13T09:13:12;99203.19;;;22.57;48.64
55373;BME280;70018;47.838;16.490;2023-07-13T09:15:47;99188.50;;;22.44;47.71
55373;BME280;70018;47.838;16.490;2023-07-13T09:18:32;99189.34;;;22.59;46.38
55373;BME280;70018;47.838;16.490;2023-07-13T09:21:10;99181.81;;;22.56;47.18
55373;BME280;70018;47.838;16.490;2023-07-13T09:23:38;99191.72;;;22.75;47.32
55373;BME280;70018;47.838;16.490;2023-07-13T09:26:18;99185.34;;;22.89;46.23
55373;BME280;70018;47.838;16.490;2023-07-13T09:28:48;99186.22;;;22.95;45.99
55373;BME280;70018;47.838;16.490;2023-07-13T09:33:48;99184.03;;;23.29;43.30
55373;BME280;70018;47.838;16.490;2023-07-13T09:36:20;99210.19;;;23.09;45.29
55373;BME280;70018;47.838;16.490;2023-07-13T09:38:53;99209.16;;;22.97;43.86
55373;BME280;70018;47.838;16.490;2023-07-13T09:41:33;99199.28;;;23.17;44.35
55373;BME280;70018;47.838;16.490;2023-07-13T09:46:35;99200.06;;;23.32;43.84
55373;BME280;70018;47.838;16.490;2023-07-13T09:49:02;99195.44;;;23.20;43.72
55373;BME280;70018;47.838;16.490;2023-07-13T09:51:29;99190.09;;;23.36;43.94
55373;BME280;70018;47.838;16.490;2023-07-13T09:56:37;99196.34;;;23.55;42.48
55373;BME280;70018;47.838;16.490;2023-07-13T09:59:04;99190.38;;;23.53;41.64
55373;BME280;70018;47.838;16.490;2023-07-13T10:01:35;99193.44;;;23.49;41.94
55373;BME280;70018;47.838;16.490;2023-07-13T10:04:11;99196.94;;;23.59;41.21
55373;BME280;70018;47.838;16.490;2023-07-13T10:06:40;99205.94;;;23.72;40.49
55373;BME280;70018;47.838;16.490;2023-07-13T10:09:13;99217.16;;;23.96;41.10
55373;BME280;70018;47.838;16.490;2023-07-13T10:11:41;99214.84;;;24.14;40.67
55373;BME280;70018;47.838;16.490;2023-07-13T10:14:21;99199.63;;;23.97;38.31
55373;BME280;70018;47.838;16.490;2023-07-13T10:16:58;99202.03;;;23.84;39.37
55373;BME280;70018;47.838;16.490;2023-07-13T10:19:29;99225.28;;;23.88;39.64
55373;BME280;70018;47.838;16.490;2023-07-13T10:22:01;99219.53;;;24.17;38.95
55373;BME280;70018;47.838;16.490;2023-07-13T10:24:31;99212.47;;;23.78;37.13
55373;BME280;70018;47.838;16.490;2023-07-13T10:27:15;99223.19;;;23.45;38.15
55373;BME280;70018;47.838;16.490;2023-07-13T10:29:52;99219.03;;;23.69;38.02
55373;BME280;70018;47.838;16.490;2023-07-13T10:32:22;99227.31;;;23.88;39.37
55373;BME280;70018;47.838;16.490;2023-07-13T10:34:51;99213.94;;;23.88;39.54
55373;BME280;70018;47.838;16.490;2023-07-13T10:37:24;99209.25;;;23.56;39.70
55373;BME280;70018;47.838;16.490;2023-07-13T10:39:55;99216.47;;;23.42;39.58
55373;BME280;70018;47.838;16.490;2023-07-13T10:42:49;99220.50;;;23.65;39.18
55373;BME280;70018;47.838;16.490;2023-07-13T10:45:20;99212.38;;;23.58;38.16
55373;BME280;70018;47.838;16.490;2023-07-13T10:47:49;99227.44;;;23.49;39.17
55373;BME280;70018;47.838;16.490;2023-07-13T10:50:22;99208.47;;;23.41;39.13
55373;BME280;70018;47.838;16.490;2023-07-13T10:52:51;99207.97;;;23.28;40.07
55373;BME280;70018;47.838;16.490;2023-07-13T10:55:31;99207.28;;;23.33;39.93
55373;BME280;70018;47.838;16.490;2023-07-13T10:58:22;99204.75;;;23.49;38.13
55373;BME280;70018;47.838;16.490;2023-07-13T11:00:56;99209.34;;;23.91;39.86
55373;BME280;70018;47.838;16.490;2023-07-13T11:03:27;99201.75;;;24.31;39.36
55373;BME280;70018;47.838;16.490;2023-07-13T11:09:00;99229.94;;;24.20;38.04
55373;BME280;70018;47.838;16.490;2023-07-13T11:11:43;99210.09;;;24.06;39.54
55373;BME280;70018;47.838;16.490;2023-07-13T11:16:54;99215.13;;;23.82;39.70
55373;BME280;70018;47.838;16.490;2023-07-13T11:22:11;99207.00;;;23.74;37.57
55373;BME280;70018;47.838;16.490;2023-07-13T11:24:58;99214.53;;;23.78;38.27
55373;BME280;70018;47.838;16.490;2023-07-13T11:27:41;99219.44;;;24.12;38.47
55373;BME280;70018;47.838;16.490;2023-07-13T11:30:20;99233.34;;;24.24;36.03
55373;BME280;70018;47.838;16.490;2023-07-13T11:33:54;99229.97;;;24.41;35.63
55373;BME280;70018;47.838;16.490;2023-07-13T11:38:28;99238.31;;;24.29;36.04
55373;BME280;70018;47.838;16.490;2023-07-13T11:40:59;99225.25;;;24.03;35.17
55373;BME280;70018;47.838;16.490;2023-07-13T11:43:29;99226.31;;;24.05;32.10
55373;BME280;70018;47.838;16.490;2023-07-13T11:45:56;99232.34;;;24.27;35.47
55373;BME280;70018;47.838;16.490;2023-07-13T11:48:28;99220.81;;;24.16;34.30
55373;BME280;70018;47.838;16.490;2023-07-13T11:51:01;99216.88;;;23.94;35.83
55373;BME280;70018;47.838;16.490;2023-07-13T11:53:34;99220.28;;;23.83;36.09
55373;BME280;70018;47.838;16.490;2023-07-13T11:56:05;99214.41;;;24.01;36.11
55373;BME280;70018;47.838;16.490;2023-07-13T11:58:32;99207.38;;;23.53;35.90
55373;BME280;70018;47.838;16.490;2023-07-13T12:01:01;99209.81;;;23.60;36.00
55373;BME280;70018;47.838;16.490;2023-07-13T12:03:33;99217.66;;;23.65;34.85
55373;BME280;70018;47.838;16.490;2023-07-13T12:06:06;99208.84;;;23.92;35.17
55373;BME280;70018;47.838;16.490;2023-07-13T12:08:49;99199.75;;;24.38;35.18
55373;BME280;70018;47.838;16.490;2023-07-13T12:11:16;99183.78;;;24.60;34.88
55373;BME280;70018;47.838;16.490;2023-07-13T12:13:44;99196.78;;;24.87;35.23
55373;BME280;70018;47.838;16.490;2023-07-13T12:18:49;99198.75;;;24.41;33.00
55373;BME280;70018;47.838;16.490;2023-07-13T12:21:19;99212.50;;;24.27;32.06
55373;BME280;70018;47.838;16.490;2023-07-13T12:23:49;99198.59;;;24.29;32.40
55373;BME280;70018;47.838;16.490;2023-07-13T12:26:17;99205.28;;;24.26;31.93
55373;BME280;70018;47.838;16.490;2023-07-13T12:28:48;99209.97;;;24.15;32.92
55373;BME280;70018;47.838;16.490;2023-07-13T12:36:33;99209.56;;;24.22;33.48
55373;BME280;70018;47.838;16.490;2023-07-13T12:39:04;99211.97;;;24.44;34.04
55373;BME280;70018;47.838;16.490;2023-07-13T12:41:36;99217.03;;;24.05;34.38
55373;BME280;70018;47.838;16.490;2023-07-13T12:44:07;99202.50;;;23.83;34.33
55373;BME280;70018;47.838;16.490;2023-07-13T12:46:36;99179.88;;;24.03;35.08
55373;BME280;70018;47.838;16.490;2023-07-13T12:49:06;99205.34;;;23.83;34.60
55373;BME280;70018;47.838;16.490;2023-07-13T12:51:44;99182.09;;;23.64;35.68
55373;BME280;70018;47.838;16.490;2023-07-13T12:54:19;99188.44;;;23.59;35.62
55373;BME280;70018;47.838;16.490;2023-07-13T12:56:49;99185.50;;;23.68;35.59
55373;BME280;70018;47.838;16.490;2023-07-13T12:59:20;99189.13;;;23.68;36.40
55373;BME280;70018;47.838;16.490;2023-07-13T13:01:48;99184.53;;;23.42;36.36
55373;BME280;70018;47.838;16.490;2023-07-13T13:04:16;99171.84;;;23.52;36.36
55373;BME280;70018;47.838;16.490;2023-07-13T13:06:49;99163.00;;;23.50;36.31
55373;BME280;70018;47.838;16.490;2023-07-13T13:09:27;99158.44;;;23.67;36.59
55373;BME280;70018;47.838;16.490;2023-07-13T13:11:53;99155.59;;;23.67;37.09
55373;BME280;70018;47.838;16.490;2023-07-13T13:14:20;99146.69;;;23.45;36.79
55373;BME280;70018;47.838;16.490;2023-07-13T13:16:48;99149.06;;;23.61;36.67
55373;BME280;70018;47.838;16.490;2023-07-13T13:19:24;99149.53;;;23.45;36.87
55373;BME280;70018;47.838;16.490;2023-07-13T13:21:53;99152.00;;;23.52;37.58
55373;BME280;70018;47.838;16.490;2023-07-13T13:24:22;99156.50;;;23.44;37.76
55373;BME280;70018;47.838;16.490;2023-07-13T13:26:51;99156.19;;;23.71;37.82
55373;BME280;70018;47.838;16.490;2023-07-13T13:29:20;99158.06;;;24.09;37.43
55373;BME280;70018;47.838;16.490;2023-07-13T13:31:47;99157.03;;;23.77;37.23
55373;BME280;70018;47.838;16.490;2023-07-13T13:34:15;99154.91;;;23.72;37.67
55373;BME280;70018;47.838;16.490;2023-07-13T13:36:44;99143.00;;;23.68;37.25
55373;BME280;70018;47.838;16.490;2023-07-13T13:39:20;99141.34;;;23.61;37.66
55373;BME280;70018;47.838;16.490;2023-07-13T13:41:50;99118.50;;;23.36;37.18
55373;BME280;70018;47.838;16.490;2023-07-13T13:44:18;99104.44;;;23.27;37.61
55373;BME280;70018;47.838;16.490;2023-07-13T13:46:51;99114.31;;;23.17;37.72